Time;durP1;ratioP1;P1;durP2;ratioP2;P2;SDS_P1;SDS_P2;PMS_P1;PMS_P2;Temp;Humidity;BMP_temperature;BMP_pressure;BME280_temperature;BME280_humidity;BME280_pressure;Samples;Min_cycle;Max_cycle;Signal;HPM_P1;HPM_P2
2023/05/06 00:00:56;;;;;;;14.35;4.32;;;;;;;8.67;56.73;101669.34;5001559;28;20033;-71
2023/05/06 00:03:22;;;;;;;6.53;3.38;;;;;;;8.68;56.65;101665.88;5021206;28;20044;-69
2023/05/06 00:05:48;;;;;;;10.20;3.70;;;;;;;8.76;56.81;101671.78;5022057;28;20029;-70
2023/05/06 00:08:14;;;;;;;8.40;3.67;;;;;;;8.77;56.66;101670.91;5023566;28;20851;-70
2023/05/06 00:10:39;;;;;;;13.85;4.25;;;;;;;8.74;56.26;101668.38;5015780;28;20044;-69
2023/05/06 00:13:04;;;;;;;4.80;3.58;;;;;;;8.77;56.62;101666.56;5022493;28;20478;-69
2023/05/06 00:15:30;;;;;;;9.25;3.20;;;;;;;8.80;56.46;101670.84;5021633;28;20094;-71
2023/05/06 00:17:56;;;;;;;7.55;3.95;;;;;;;8.82;56.10;101671.69;5016057;28;20114;-70
2023/05/06 00:20:21;;;;;;;8.75;3.60;;;;;;;8.83;56.53;101665.59;5022986;28;20045;-70
2023/05/06 00:22:47;;;;;;;7.32;3.95;;;;;;;8.67;56.36;101658.91;5018713;28;20696;-71
2023/05/06 00:25:13;;;;;;;8.25;4.53;;;;;;;8.68;56.65;101652.81;5024108;28;20115;-71
2023/05/06 00:27:38;;;;;;;7.07;3.17;;;;;;;8.77;56.25;101663.09;5021068;28;20155;-71
2023/05/06 00:30:05;;;;;;;9.68;3.80;;;;;;;8.72;56.41;101664.94;5020790;28;20033;-71
2023/05/06 00:32:30;;;;;;;6.15;3.38;;;;;;;8.67;56.65;101664.13;5011373;28;20044;-71
2023/05/06 00:34:56;;;;;;;5.43;3.97;;;;;;;8.74;56.77;101668.38;5019176;28;20091;-70
2023/05/06 00:37:21;;;;;;;6.72;4.05;;;;;;;8.71;56.60;101668.44;5021580;28;20087;-71
2023/05/06 00:39:47;;;;;;;5.82;2.85;;;;;;;8.76;56.75;101677.00;5017602;28;20109;-69
2023/05/06 00:42:12;;;;;;;8.40;3.83;;;;;;;8.87;56.33;101680.25;5021548;28;20773;-69
2023/05/06 00:44:38;;;;;;;4.07;2.78;;;;;;;8.80;56.29;101672.59;5019215;28;20040;-68
2023/05/06 00:47:04;;;;;;;5.97;3.95;;;;;;;8.77;56.64;101673.53;5023249;28;20290;-72
2023/05/06 00:49:30;;;;;;;8.77;4.40;;;;;;;8.76;56.38;101666.59;5030014;28;20041;-70
2023/05/06 00:51:56;;;;;;;10.75;3.95;;;;;;;8.76;56.29;101670.06;5001202;28;20466;-72
2023/05/06 00:54:24;;;;;;;9.57;4.95;;;;;;;8.90;56.10;101672.41;5007786;28;20048;-71
2023/05/06 00:56:50;;;;;;;8.70;3.85;;;;;;;8.91;56.11;101673.25;4999875;28;20065;-69
2023/05/06 00:59:16;;;;;;;14.25;4.72;;;;;;;8.95;55.88;101667.94;4996345;28;20122;-72
2023/05/06 01:01:42;;;;;;;7.32;4.63;;;;;;;8.91;55.92;101674.09;5003319;28;20136;-71
2023/05/06 01:04:07;;;;;;;7.72;4.20;;;;;;;8.90;55.77;101675.00;5003530;28;20463;-71
2023/05/06 01:07:01;;;;;;;7.82;4.60;;;;;;;8.82;55.62;101673.44;4997883;28;20048;-71
2023/05/06 01:09:38;;;;;;;12.70;4.72;;;;;;;8.74;55.85;101674.44;4983837;28;20052;-70
2023/05/06 01:12:11;;;;;;;9.57;4.18;;;;;;;8.60;55.82;101680.78;4992208;28;20534;-71
2023/05/06 01:14:58;;;;;;;8.73;4.03;;;;;;;8.40;56.50;101679.38;4996171;28;20045;-70
2023/05/06 01:17:27;;;;;;;9.70;5.00;;;;;;;8.35;56.79;101681.22;4999420;28;20045;-71
2023/05/06 01:19:57;;;;;;;8.60;4.57;;;;;;;8.47;56.72;101686.22;4991532;28;20037;-67
2023/05/06 01:22:25;;;;;;;10.40;5.15;;;;;;;8.46;56.64;101681.03;5001669;28;20032;-68
2023/05/06 01:24:51;;;;;;;12.18;4.10;;;;;;;8.45;56.50;101674.09;4998017;28;20052;-70
2023/05/06 01:27:17;;;;;;;8.18;4.82;;;;;;;8.36;56.59;101677.75;4993371;28;20033;-66
2023/05/06 01:29:45;;;;;;;10.48;5.38;;;;;;;8.26;56.84;101670.97;4996751;28;20038;-69
2023/05/06 01:32:48;;;;;;;9.93;5.10;;;;;;;8.17;57.37;101663.31;4999273;28;20030;-67
2023/05/06 01:35:27;;;;;;;10.55;5.13;;;;;;;8.23;57.41;101658.88;5000669;28;20493;-70
2023/05/06 01:37:59;;;;;;;10.80;5.82;;;;;;;8.20;57.06;101663.25;4997014;28;20623;-67
2023/05/06 01:40:27;;;;;;;13.35;6.28;;;;;;;8.13;57.42;101660.75;4997856;28;20064;-73
2023/05/06 01:42:54;;;;;;;10.05;5.47;;;;;;;8.15;57.69;101658.97;4981487;28;20072;-68
2023/05/06 01:45:20;;;;;;;14.48;6.10;;;;;;;8.22;57.53;101658.88;5011941;28;20152;-71
2023/05/06 01:47:46;;;;;;;11.57;6.80;;;;;;;8.26;57.17;101663.16;4982081;28;20819;-70
2023/05/06 01:50:12;;;;;;;12.55;5.97;;;;;;;8.18;57.13;101668.47;5013058;28;20053;-68
2023/05/06 01:52:38;;;;;;;8.43;5.15;;;;;;;8.31;57.31;101666.53;4997820;28;20034;-69
2023/05/06 01:55:05;;;;;;;16.27;6.40;;;;;;;8.26;57.31;101663.16;4992031;28;20512;-68
2023/05/06 01:57:31;;;;;;;10.45;6.25;;;;;;;8.33;57.56;101667.38;4980742;28;20942;-69
2023/05/06 01:59:56;;;;;;;7.88;3.85;;;;;;;8.37;57.63;101663.81;4994948;28;20037;-69
2023/05/06 02:02:23;;;;;;;14.60;5.93;;;;;;;8.37;57.45;101674.25;4981384;28;20033;-68
2023/05/06 02:04:51;;;;;;;13.13;6.28;;;;;;;8.40;57.46;101671.56;4989317;28;20037;-69
2023/05/06 02:07:19;;;;;;;12.30;6.53;;;;;;;8.42;57.04;101677.63;4995702;28;20602;-71
2023/05/06 02:09:45;;;;;;;9.13;6.18;;;;;;;8.43;57.47;101679.34;4977055;28;20095;-71
2023/05/06 02:12:11;;;;;;;9.57;7.35;;;;;;;8.56;57.13;101680.84;4998729;28;20033;-72
2023/05/06 02:14:39;;;;;;;13.82;7.30;;;;;;;8.49;57.01;101689.63;4973006;28;20072;-72
2023/05/06 02:17:06;;;;;;;12.50;7.05;;;;;;;8.62;56.85;101689.41;4984577;28;21003;-72
2023/05/06 02:19:31;;;;;;;11.80;7.15;;;;;;;8.69;56.58;101681.44;4994020;28;20051;-72
2023/05/06 02:21:57;;;;;;;21.42;7.90;;;;;;;8.73;56.89;101692.72;5014668;28;20037;-71
2023/05/06 02:24:22;;;;;;;17.90;7.95;;;;;;;8.56;56.92;101691.25;5005441;28;20040;-70
2023/05/06 02:26:48;;;;;;;12.80;8.18;;;;;;;8.62;56.95;101694.63;4998347;28;20116;-71
2023/05/06 02:29:13;;;;;;;11.68;8.23;;;;;;;8.53;56.69;101691.31;5001983;28;20292;-70
2023/05/06 02:31:39;;;;;;;11.50;8.88;;;;;;;8.47;56.92;101691.44;5016350;28;20133;-70
2023/05/06 02:34:04;;;;;;;16.63;9.25;;;;;;;8.38;57.37;101681.16;5017828;28;20048;-71
2023/05/06 02:36:33;;;;;;;13.30;8.80;;;;;;;8.38;57.13;101681.16;5009417;28;20258;-70
2023/05/06 02:38:58;;;;;;;16.73;9.13;;;;;;;8.31;57.25;101679.56;5015616;28;20312;-70
2023/05/06 02:41:24;;;;;;;13.40;8.38;;;;;;;8.26;57.24;101671.81;5013738;28;20037;-71
2023/05/06 02:43:50;;;;;;;15.10;7.95;;;;;;;8.13;57.13;101673.78;4996796;28;20095;-70
2023/05/06 02:46:18;;;;;;;14.32;8.25;;;;;;;8.17;57.46;101676.34;5000839;28;20127;-70
2023/05/06 02:48:45;;;;;;;17.42;9.27;;;;;;;8.05;57.90;101674.81;4997753;28;20041;-69
2023/05/06 02:51:13;;;;;;;15.25;8.40;;;;;;;8.03;57.68;101672.22;4994392;28;20060;-69
2023/05/06 02:53:39;;;;;;;13.30;9.57;;;;;;;8.07;57.79;101676.50;4993721;28;20041;-70
2023/05/06 02:56:05;;;;;;;16.30;9.27;;;;;;;8.09;57.73;101673.84;4999133;28;20040;-70
2023/05/06 02:58:33;;;;;;;15.30;9.38;;;;;;;8.17;57.75;101673.75;4978270;28;20298;-69
2023/05/06 03:00:58;;;;;;;13.98;9.10;;;;;;;8.09;57.51;101669.53;4997014;28;20593;-69
2023/05/06 03:03:25;;;;;;;21.17;10.95;;;;;;;8.05;57.96;101665.25;4998784;28;20747;-70
2023/05/06 03:05:51;;;;;;;22.60;11.52;;;;;;;7.94;58.00;101651.56;4996715;28;20041;-70
2023/05/06 03:08:16;;;;;;;23.95;11.95;;;;;;;7.79;58.05;101663.06;4995048;28;20311;-69
2023/05/06 03:10:47;;;;;;;22.90;11.70;;;;;;;7.87;58.26;101668.13;4998243;28;20036;-75
2023/05/06 03:13:17;;;;;;;25.43;12.00;;;;;;;7.92;58.37;101676.75;4990592;28;20231;-73
2023/05/06 03:15:51;;;;;;;22.98;12.15;;;;;;;7.97;58.21;101680.13;4999957;28;20025;-73
2023/05/06 03:18:16;;;;;;;22.57;12.83;;;;;;;8.06;58.18;101674.75;4980775;28;20765;-68
2023/05/06 03:20:42;;;;;;;24.02;12.15;;;;;;;8.04;58.35;101671.31;4999377;28;20036;-68
2023/05/06 03:23:08;;;;;;;31.13;15.80;;;;;;;7.93;58.23;101663.69;4997943;28;20297;-69
2023/05/06 03:25:35;;;;;;;27.85;13.50;;;;;;;7.99;58.19;101657.53;4994301;28;20042;-69
2023/05/06 03:28:00;;;;;;;30.15;14.52;;;;;;;8.01;58.03;101660.97;4996500;28;20032;-74
2023/05/06 03:30:31;;;;;;;26.05;13.57;;;;;;;7.98;58.19;101661.03;5015597;28;20047;-77
2023/05/06 03:33:03;;;;;;;27.35;14.63;;;;;;;8.00;58.08;101654.03;4997707;28;20033;-72
2023/05/06 03:35:31;;;;;;;;;;;;;;;7.99;58.46;101667.94;4998896;28;20283;-73
2023/05/06 03:38:01;;;;;;;30.23;14.10;;;;;;;7.91;58.23;101669.81;4997279;28;19917;-73
2023/05/06 03:40:59;;;;;;;73.07;13.43;;;;;;;7.94;58.17;101670.63;4999275;28;20034;-74
2023/05/06 03:43:28;;;;;;;34.92;12.00;;;;;;;7.84;58.61;101673.41;4999246;28;20593;-74
2023/05/06 03:45:58;;;;;;;23.52;11.52;;;;;;;7.90;58.74;101674.16;4982732;28;20033;-75
2023/05/06 03:48:34;;;;;;;25.63;12.95;;;;;;;7.86;58.41;101682.91;4999817;28;20661;-73
2023/05/06 03:51:00;;;;;;;23.35;12.35;;;;;;;8.14;58.58;101687.66;4983547;28;20038;-73
2023/05/06 03:53:29;;;;;;;23.88;12.85;;;;;;;8.16;58.00;101691.13;5003433;28;20666;-74
2023/05/06 03:55:54;;;;;;;34.53;13.13;;;;;;;8.14;57.90;101685.91;4996975;28;20029;-74
2023/05/06 03:58:22;;;;;;;28.38;13.82;;;;;;;8.14;57.98;101683.31;4979259;28;20050;-75
2023/05/06 04:00:49;;;;;;;30.77;12.75;;;;;;;8.07;58.18;101686.91;5006739;28;20041;-74
2023/05/06 04:03:15;;;;;;;25.17;13.38;;;;;;;7.99;58.15;101688.78;5019616;28;20037;-74
2023/05/06 04:05:45;;;;;;;19.40;12.55;;;;;;;8.05;58.89;101683.47;5008686;28;20024;-75
2023/05/06 04:08:19;;;;;;;24.42;12.88;;;;;;;8.18;58.54;101681.50;5007597;28;20094;-76
2023/05/06 04:10:45;;;;;;;37.53;13.48;;;;;;;8.08;58.01;101691.22;5034753;28;20051;-77
2023/05/06 04:13:25;;;;;;;18.00;12.10;;;;;;;8.04;58.54;101697.34;5009742;28;20118;-78
2023/05/06 04:15:51;;;;;;;83.82;14.38;;;;;;;7.98;58.25;101692.28;5025528;28;20270;-75
2023/05/06 04:18:21;;;;;;;87.20;13.73;;;;;;;7.86;58.52;101692.44;5005222;28;20039;-76
2023/05/06 04:20:59;;;;;;;41.60;11.52;;;;;;;7.90;58.70;101694.13;4990281;28;20025;-75
2023/05/06 04:23:27;;;;;;;47.00;12.40;;;;;;;7.88;58.96;101686.34;4982105;28;20084;-73
2023/05/06 04:25:58;;;;;;;26.88;11.95;;;;;;;7.96;58.88;101688.84;5003612;28;20051;-73
2023/05/06 04:28:24;;;;;;;31.25;11.95;;;;;;;7.97;58.79;101685.34;4987073;28;20065;-78
2023/05/06 04:30:53;;;;;;;35.95;13.05;;;;;;;8.01;58.90;101687.00;5005910;28;20041;-76
2023/05/06 04:33:24;;;;;;;49.33;13.10;;;;;;;7.99;58.84;101686.16;4999535;28;20046;-78
2023/05/06 04:35:52;;;;;;;96.28;14.13;;;;;;;8.04;58.99;101689.56;5000786;28;20843;-75
2023/05/06 04:38:20;;;;;;;68.40;13.50;;;;;;;8.15;58.56;101687.63;4976639;28;20029;-76
2023/05/06 04:40:48;;;;;;;18.00;11.73;;;;;;;8.34;58.70;101696.00;5001517;28;20033;-69
2023/05/06 04:43:15;;;;;;;17.73;11.45;;;;;;;8.49;58.63;101694.00;5001947;28;20045;-69
2023/05/06 04:45:47;;;;;;;41.10;12.15;;;;;;;8.47;57.85;101696.66;5001078;28;20190;-71
2023/05/06 04:48:18;;;;;;;40.70;13.02;;;;;;;8.43;58.13;101705.41;4983214;28;20740;-70
2023/05/06 04:50:45;;;;;;;37.53;14.35;;;;;;;8.40;58.15;101705.44;4991533;28;20030;-70
2023/05/06 04:53:11;;;;;;;68.35;13.98;;;;;;;8.48;58.51;101703.56;4999944;28;20635;-70
2023/05/06 04:55:37;;;;;;;42.55;13.35;;;;;;;8.48;58.18;101708.78;4990456;28;20037;-70
2023/05/06 04:58:03;;;;;;;31.85;13.75;;;;;;;8.53;57.79;101700.88;4999129;28;20060;-75
2023/05/06 05:00:29;;;;;;;21.27;11.90;;;;;;;8.37;57.72;101705.50;4983560;28;20435;-74
2023/05/06 05:02:55;;;;;;;24.50;12.82;;;;;;;8.38;57.91;101715.03;4999555;28;20080;-75
2023/05/06 05:05:22;;;;;;;24.65;12.30;;;;;;;8.38;58.60;101714.16;5018861;28;20037;-74
2023/05/06 05:07:51;;;;;;;21.98;12.07;;;;;;;8.42;58.17;101724.50;5013967;28;20064;-75
2023/05/06 05:10:17;;;;;;;20.02;11.55;;;;;;;8.36;58.01;101724.63;5016006;28;20144;-75
2023/05/06 05:12:43;;;;;;;24.08;12.80;;;;;;;8.41;58.03;101722.81;4999038;28;20041;-74
2023/05/06 05:15:12;;;;;;;18.92;10.98;;;;;;;8.38;57.99;101724.59;5004170;28;20681;-75
2023/05/06 05:17:38;;;;;;;27.73;12.32;;;;;;;8.44;57.78;101725.34;5016708;28;20040;-75
2023/05/06 05:20:10;;;;;;;21.35;12.07;;;;;;;8.46;58.47;101728.78;5018533;28;20127;-75
2023/05/06 05:22:38;;;;;;;28.47;12.33;;;;;;;8.52;58.46;101722.63;5000880;28;20095;-75
2023/05/06 05:25:05;;;;;;;27.02;12.35;;;;;;;8.62;58.58;101720.69;5008746;28;20033;-70
2023/05/06 05:27:30;;;;;;;29.88;12.90;;;;;;;8.56;58.33;101722.53;5036172;28;20065;-70
2023/05/06 05:29:56;;;;;;;28.27;14.57;;;;;;;8.75;58.29;101722.22;5014090;28;20478;-67
2023/05/06 05:32:24;;;;;;;24.80;12.45;;;;;;;8.84;58.36;101727.25;4999331;28;20037;-72
2023/05/06 05:34:49;;;;;;;24.85;13.05;;;;;;;8.67;57.92;101730.16;5033302;28;20473;-71
2023/05/06 05:37:16;;;;;;;28.48;13.73;;;;;;;8.47;58.02;101717.50;4999037;28;20505;-72
2023/05/06 05:39:42;;;;;;;29.65;13.43;;;;;;;8.43;58.44;101721.03;4981818;28;20041;-73
2023/05/06 05:42:09;;;;;;;22.83;13.55;;;;;;;8.59;58.89;101719.00;4997682;28;20030;-73
2023/05/06 05:44:39;;;;;;;29.60;13.73;;;;;;;8.34;58.82;101726.41;4993859;28;20037;-73
2023/05/06 05:47:07;;;;;;;26.65;13.70;;;;;;;8.72;58.52;101725.75;4999574;28;20779;-72
2023/05/06 05:49:34;;;;;;;23.65;13.30;;;;;;;8.90;58.72;101732.34;4993670;28;22842;-71
2023/05/06 05:52:04;;;;;;;24.13;13.02;;;;;;;9.00;58.12;101727.81;5012699;28;20240;-71
2023/05/06 05:54:32;;;;;;;23.58;13.52;;;;;;;8.85;58.58;101731.59;4998030;28;20041;-68
2023/05/06 05:56:58;;;;;;;29.30;14.07;;;;;;;9.01;58.09;101733.88;4998606;28;20623;-69
2023/05/06 05:59:27;;;;;;;27.33;14.20;;;;;;;9.09;58.06;101739.81;4992561;28;20100;-70
2023/05/06 06:01:57;;;;;;;25.80;13.90;;;;;;;8.90;58.05;101737.56;4987116;28;20030;-69
2023/05/06 06:04:26;;;;;;;27.00;13.95;;;;;;;8.87;58.33;101729.78;4972187;28;20640;-69
2023/05/06 06:06:52;;;;;;;26.77;13.85;;;;;;;8.83;58.29;101729.88;4988967;28;20119;-69
2023/05/06 06:09:18;;;;;;;24.70;13.30;;;;;;;8.95;58.05;101737.47;4996916;28;20033;-71
2023/05/06 06:11:48;;;;;;;26.52;14.35;;;;;;;8.79;58.88;101734.31;5018552;28;20043;-71
2023/05/06 06:14:14;;;;;;;24.98;13.93;;;;;;;9.19;58.28;101741.34;5017186;28;20056;-72
2023/05/06 06:16:40;;;;;;;27.40;13.93;;;;;;;9.33;57.53;101749.75;5015382;28;20256;-72
2023/05/06 06:19:08;;;;;;;30.42;13.35;;;;;;;9.17;57.12;101757.03;5015476;28;20437;-71
2023/05/06 06:21:34;;;;;;;25.83;13.02;;;;;;;9.28;57.21;101756.81;5015252;28;20945;-71
2023/05/06 06:24:05;;;;;;;26.77;15.05;;;;;;;9.22;57.37;101763.91;5014131;28;20044;-71
2023/05/06 06:26:30;;;;;;;25.15;14.43;;;;;;;9.25;57.79;101775.13;5018579;28;20041;-72
2023/05/06 06:28:58;;;;;;;31.63;14.50;;;;;;;9.27;57.80;101772.50;5007627;28;20037;-72
2023/05/06 06:31:25;;;;;;;28.35;13.43;;;;;;;9.23;57.86;101771.72;5025090;28;20059;-70
2023/05/06 06:33:51;;;;;;;28.55;14.98;;;;;;;9.46;57.75;101771.22;5029390;28;20037;-70
2023/05/06 06:36:16;;;;;;;28.13;14.73;;;;;;;9.60;57.08;101773.53;5012210;28;20937;-71
2023/05/06 06:38:42;;;;;;;20.65;13.27;;;;;;;9.65;56.86;101776.91;5014534;28;20492;-70
2023/05/06 06:41:08;;;;;;;21.77;13.70;;;;;;;9.76;56.74;101777.53;5001915;28;20116;-70
2023/05/06 06:43:33;;;;;;;22.20;12.25;;;;;;;9.95;55.89;101771.94;5014074;28;20713;-69
2023/05/06 06:46:00;;;;;;;33.00;14.80;;;;;;;10.03;56.48;101770.00;5015008;28;20032;-68
2023/05/06 06:48:28;;;;;;;34.30;15.45;;;;;;;9.94;55.45;101776.28;5001200;28;20095;-69
2023/05/06 06:50:53;;;;;;;29.77;15.88;;;;;;;9.92;55.80;101777.22;5000905;28;20108;-71
2023/05/06 06:53:19;;;;;;;28.83;15.02;;;;;;;9.72;55.96;101781.13;4990761;28;20613;-65
2023/05/06 06:55:45;;;;;;;27.40;14.95;;;;;;;9.69;56.27;101786.38;5008017;28;20732;-67
2023/05/06 06:58:11;;;;;;;30.38;14.50;;;;;;;9.54;56.14;101786.72;5012757;28;20148;-71
2023/05/06 07:00:55;;;;;;;27.88;15.10;;;;;;;9.54;56.46;101792.81;5018318;28;20148;-70
2023/05/06 07:03:20;;;;;;;28.17;15.27;;;;;;;9.69;56.32;101796.81;5014432;28;20562;-70
2023/05/06 07:05:45;;;;;;;29.73;14.30;;;;;;;9.68;56.12;101796.84;5019872;28;20029;-70
2023/05/06 07:08:11;;;;;;;24.40;14.40;;;;;;;9.77;56.15;101801.91;5017431;28;20041;-71
2023/05/06 07:10:37;;;;;;;26.17;14.63;;;;;;;9.82;56.08;101796.63;5023788;28;20039;-71
2023/05/06 07:13:02;;;;;;;31.52;17.10;;;;;;;10.01;56.35;101797.91;5018472;28;20041;-68
2023/05/06 07:15:28;;;;;;;26.23;15.07;;;;;;;10.11;55.41;101801.16;5016286;28;20080;-71
2023/05/06 07:17:54;;;;;;;26.98;13.88;;;;;;;10.32;55.67;101795.41;5015506;28;20538;-69
2023/05/06 07:20:20;;;;;;;27.35;14.02;;;;;;;10.27;55.21;101801.66;5015764;28;20041;-67
2023/05/06 07:22:45;;;;;;;24.58;13.63;;;;;;;10.20;54.85;101807.03;5012290;28;20029;-70
2023/05/06 07:25:11;;;;;;;23.88;13.38;;;;;;;10.13;55.42;101802.00;5018341;28;20974;-70
2023/05/06 07:27:36;;;;;;;26.85;14.60;;;;;;;10.38;55.00;101807.50;5020086;28;20033;-67
2023/05/06 07:30:04;;;;;;;27.25;15.38;;;;;;;10.28;54.52;101801.63;5022591;28;20798;-66
2023/05/06 07:32:29;;;;;;;30.40;15.15;;;;;;;10.30;54.94;101815.50;5016547;28;20381;-73
2023/05/06 07:34:55;;;;;;;42.95;19.10;;;;;;;10.41;54.61;101812.63;5020541;28;20440;-69
2023/05/06 07:37:20;;;;;;;27.65;14.65;;;;;;;10.49;54.58;101804.63;5017994;28;20043;-69
2023/05/06 07:39:46;;;;;;;32.10;14.95;;;;;;;10.61;54.32;101817.38;5017300;28;20045;-68
2023/05/06 07:42:12;;;;;;;25.05;14.68;;;;;;;10.59;53.81;101816.53;5022126;28;20025;-69
2023/05/06 07:44:38;;;;;;;20.33;13.02;;;;;;;10.60;53.84;101824.34;5017520;28;20033;-68
2023/05/06 07:47:04;;;;;;;27.40;12.77;;;;;;;10.60;53.79;101828.72;5018180;28;20041;-68
2023/05/06 07:49:32;;;;;;;28.35;14.77;;;;;;;10.64;54.01;101833.00;5005430;28;20052;-68
2023/05/06 07:51:58;;;;;;;26.83;15.23;;;;;;;10.73;53.70;101827.53;4979911;28;20041;-68
2023/05/06 07:54:24;;;;;;;23.70;13.80;;;;;;;10.72;53.96;101827.56;4999387;28;20437;-69
2023/05/06 07:56:50;;;;;;;29.70;14.77;;;;;;;10.71;53.45;101825.84;4993287;28;20034;-69
2023/05/06 07:59:15;;;;;;;29.15;15.35;;;;;;;10.63;53.54;101831.25;4997851;28;20037;-67
2023/05/06 08:01:41;;;;;;;24.27;13.27;;;;;;;10.70;53.90;101834.59;4995505;28;20087;-68
2023/05/06 08:04:06;;;;;;;23.45;12.02;;;;;;;10.77;53.63;101836.13;4996747;28;20325;-68
2023/05/06 08:06:32;;;;;;;29.15;13.25;;;;;;;10.65;53.63;101829.47;4999660;28;20091;-68
2023/05/06 08:08:57;;;;;;;26.77;13.10;;;;;;;10.48;54.10;101829.91;4996127;28;20255;-68
2023/05/06 08:11:23;;;;;;;26.77;12.75;;;;;;;10.46;53.79;101836.91;4996883;28;20030;-67
2023/05/06 08:13:48;;;;;;;28.40;14.00;;;;;;;10.30;54.09;101832.94;4989841;28;20234;-69
2023/05/06 08:16:14;;;;;;;29.15;14.10;;;;;;;10.27;53.73;101836.47;4998469;28;20871;-68
2023/05/06 08:18:40;;;;;;;23.60;13.55;;;;;;;10.12;54.56;101836.84;4992063;28;20452;-68
2023/05/06 08:21:05;;;;;;;26.02;13.55;;;;;;;10.15;54.34;101842.84;4997428;28;20026;-68
2023/05/06 08:23:31;;;;;;;26.65;13.32;;;;;;;10.29;54.48;101850.38;4992050;28;20057;-69
2023/05/06 08:25:58;;;;;;;28.10;13.50;;;;;;;10.29;54.22;101849.53;4996331;28;20116;-68
2023/05/06 08:28:24;;;;;;;31.27;14.60;;;;;;;10.41;55.00;101846.59;4995248;28;20148;-67
2023/05/06 08:30:51;;;;;;;28.48;14.25;;;;;;;10.46;54.04;101846.50;4995172;28;20036;-69
2023/05/06 08:33:17;;;;;;;36.97;16.52;;;;;;;10.51;53.94;101850.72;4995188;28;20044;-68
2023/05/06 08:35:43;;;;;;;30.30;14.63;;;;;;;10.41;54.53;101844.88;4995056;28;20034;-68
2023/05/06 08:38:09;;;;;;;35.25;13.02;;;;;;;10.53;54.32;101848.94;4999531;28;20080;-69
2023/05/06 08:40:41;;;;;;;32.28;15.32;;;;;;;10.54;54.44;101845.41;5018451;28;20037;-68
2023/05/06 08:43:10;;;;;;;;;;;;;;;10.88;54.48;101852.44;5013693;28;20044;-68
2023/05/06 08:45:36;;;;;;;26.55;14.15;;;;;;;10.70;53.59;101855.50;5018624;28;20338;-68
2023/05/06 08:48:01;;;;;;;26.90;13.57;;;;;;;10.49;53.92;101857.75;5024738;28;20063;-68
2023/05/06 08:50:27;;;;;;;28.17;14.20;;;;;;;10.36;54.45;101851.94;4994471;28;20579;-67
2023/05/06 08:52:53;;;;;;;25.77;12.88;;;;;;;10.38;54.41;101857.16;4992590;28;20508;-67
2023/05/06 08:55:20;;;;;;;26.73;13.70;;;;;;;10.34;54.47;101858.09;4996773;28;20098;-67
2023/05/06 08:57:48;;;;;;;29.25;13.82;;;;;;;10.20;54.44;101856.66;5000838;28;20793;-68
2023/05/06 09:00:14;;;;;;;27.98;13.68;;;;;;;10.38;54.21;101859.75;5002908;28;20037;-67
2023/05/06 09:02:40;;;;;;;23.75;13.00;;;;;;;10.25;54.82;101861.78;4997754;28;20052;-68
2023/05/06 09:05:08;;;;;;;23.25;12.98;;;;;;;10.32;54.55;101859.88;5002026;28;20072;-68
2023/05/06 09:07:33;;;;;;;28.67;12.65;;;;;;;10.43;54.07;101857.88;4998517;28;20107;-67
2023/05/06 09:09:59;;;;;;;26.98;13.60;;;;;;;10.54;53.46;101855.03;5016104;28;20099;-68
2023/05/06 09:12:25;;;;;;;29.40;12.00;;;;;;;10.87;53.44;101857.72;5005202;28;20075;-68
2023/05/06 09:14:50;;;;;;;24.27;12.93;;;;;;;11.14;53.41;101851.75;5017611;28;20065;-68
2023/05/06 09:17:25;;;;;;;25.35;11.93;;;;;;;10.87;53.24;101860.34;5016769;28;20037;-69
2023/05/06 09:19:58;;;;;;;22.98;11.70;;;;;;;11.29;52.63;101855.75;5000813;28;20095;-68
2023/05/06 09:22:28;;;;;;;27.83;12.20;;;;;;;11.62;52.28;101859.16;4995342;28;20581;-69
2023/05/06 09:24:57;;;;;;;23.77;12.60;;;;;;;11.61;51.44;101861.81;4992072;28;20042;-68
2023/05/06 09:27:27;;;;;;;21.65;11.75;;;;;;;11.60;51.37;101860.13;5009461;28;20041;-69
2023/05/06 09:30:10;;;;;;;21.63;11.07;;;;;;;11.40;51.42;101865.91;5005304;28;20297;-68
2023/05/06 09:32:36;;;;;;;23.70;11.05;;;;;;;11.42;51.60;101861.50;5015069;28;20036;-68
2023/05/06 09:35:02;;;;;;;19.88;12.00;;;;;;;11.48;51.97;101857.84;5016590;28;20044;-69
2023/05/06 09:37:28;;;;;;;16.77;10.30;;;;;;;11.33;51.47;101861.72;5016735;28;20037;-69
2023/05/06 09:39:55;;;;;;;18.50;10.77;;;;;;;11.11;52.04;101871.94;5016385;28;20204;-69
2023/05/06 09:42:22;;;;;;;17.27;10.13;;;;;;;11.15;52.13;101869.19;5014292;28;20033;-70
2023/05/06 09:44:48;;;;;;;16.17;9.55;;;;;;;11.22;51.86;101875.13;5017781;28;20067;-70
2023/05/06 09:47:13;;;;;;;21.65;11.60;;;;;;;11.60;52.06;101857.50;5019340;28;20485;-70
2023/05/06 09:49:40;;;;;;;20.90;10.25;;;;;;;12.41;49.90;101854.19;5007492;28;20051;-70
2023/05/06 09:52:10;;;;;;;16.83;8.93;;;;;;;12.64;47.94;101854.28;5017822;28;20044;-69
2023/05/06 09:54:37;;;;;;;13.77;9.00;;;;;;;12.74;47.88;101854.03;5015068;28;20041;-69
2023/05/06 09:57:04;;;;;;;16.63;9.73;;;;;;;13.01;47.70;101849.63;5017717;28;20310;-70
2023/05/06 09:59:30;;;;;;;13.70;9.10;;;;;;;13.39;47.19;101856.13;5031230;28;20685;-70
2023/05/06 10:01:58;;;;;;;12.75;8.98;;;;;;;13.53;47.05;101853.84;5014377;28;20024;-70
2023/05/06 10:04:25;;;;;;;12.23;8.68;;;;;;;13.33;46.58;101856.34;5005222;28;20041;-70
2023/05/06 10:06:55;;;;;;;14.70;9.13;;;;;;;13.00;47.20;101853.97;4989778;28;20057;-70
2023/05/06 10:09:23;;;;;;;18.35;8.75;;;;;;;13.04;48.17;101862.63;4997296;28;20038;-70
2023/05/06 10:11:50;;;;;;;15.93;8.82;;;;;;;13.01;47.85;101860.09;4995986;28;20033;-70
2023/05/06 10:14:17;;;;;;;14.38;8.75;;;;;;;13.01;48.49;101860.09;4997323;28;20045;-69
2023/05/06 10:16:44;;;;;;;12.65;8.55;;;;;;;13.16;47.89;101859.56;4997404;28;20748;-70
2023/05/06 10:19:11;;;;;;;12.43;8.48;;;;;;;13.28;46.67;101853.03;4997788;28;20148;-70
2023/05/06 10:21:42;;;;;;;11.02;8.20;;;;;;;13.29;47.25;101854.72;4985382;28;20798;-71
2023/05/06 10:24:11;;;;;;;12.18;8.40;;;;;;;13.21;46.54;101855.00;4995213;28;20034;-70
2023/05/06 10:26:38;;;;;;;15.45;8.85;;;;;;;13.31;47.24;101853.75;4978870;28;20943;-71
2023/05/06 10:29:09;;;;;;;16.42;9.32;;;;;;;13.41;46.31;101854.28;4989804;28;20037;-71
2023/05/06 10:31:39;;;;;;;14.00;8.90;;;;;;;14.04;46.36;101843.22;5011146;28;20196;-70
2023/05/06 10:34:06;;;;;;;23.55;11.45;;;;;;;14.36;44.92;101834.88;4996856;28;20048;-71
2023/05/06 10:36:35;;;;;;;24.30;11.82;;;;;;;14.24;44.50;101845.06;4996238;28;20572;-71
2023/05/06 10:39:02;;;;;;;16.98;10.40;;;;;;;14.21;45.09;101837.25;4995449;28;20041;-70
2023/05/06 10:41:29;;;;;;;18.00;10.63;;;;;;;14.00;45.94;101842.47;4997084;28;20026;-71
2023/05/06 10:43:56;;;;;;;19.67;13.60;;;;;;;13.43;46.45;101846.34;4995711;28;20120;-71
2023/05/06 10:46:23;;;;;;;23.73;13.55;;;;;;;13.41;46.71;101851.66;4981139;28;20036;-71
2023/05/06 10:49:13;;;;;;;21.88;13.07;;;;;;;13.60;46.43;101848.38;4992935;28;20037;-71
2023/05/06 10:51:42;;;;;;;26.20;14.20;;;;;;;13.58;46.76;101845.81;4977745;28;20887;-70
2023/05/06 10:54:08;;;;;;;25.10;13.38;;;;;;;13.31;46.96;101848.50;4991079;28;20462;-70
2023/05/06 10:56:35;;;;;;;24.75;14.38;;;;;;;13.25;47.68;101853.13;4994372;28;20529;-70
2023/05/06 10:59:06;;;;;;;27.63;14.70;;;;;;;13.41;47.42;101846.41;4996623;28;20056;-71
2023/05/06 11:01:33;;;;;;;26.30;13.10;;;;;;;13.46;47.03;101849.72;4997234;28;20287;-71
2023/05/06 11:04:11;;;;;;;25.38;14.35;;;;;;;13.53;46.89;101850.34;4998387;28;20034;-71
2023/05/06 11:06:43;;;;;;;20.55;12.98;;;;;;;13.81;47.56;101847.59;4997332;28;20455;-71
2023/05/06 11:09:26;;;;;;;21.65;12.63;;;;;;;14.02;46.86;101845.03;4998374;28;20041;-71
2023/05/06 11:12:01;;;;;;;22.65;12.60;;;;;;;14.13;45.57;101853.34;4980986;28;20147;-70
2023/05/06 11:14:33;;;;;;;24.92;13.45;;;;;;;14.40;45.44;101850.53;4986910;28;20132;-70
2023/05/06 11:17:00;;;;;;;18.38;12.20;;;;;;;14.63;45.18;101846.97;4989366;28;20040;-71
2023/05/06 11:19:28;;;;;;;21.20;13.57;;;;;;;14.64;44.29;101852.19;4995565;28;20305;-71
2023/05/06 11:21:56;;;;;;;21.55;11.68;;;;;;;;;;4998257;28;20121;-70